sensor_id;sensor_type;location;lat;lon;timestamp;P1;durP1;ratioP1;P2;durP2;ratioP2
16737;SDS011;17906;47.684;10.806;2022-12-17T00:00:09;25.27;;;10.00;;
16737;SDS011;17906;47.684;10.806;2022-12-17T00:02:55;24.17;;;9.50;;
16737;SDS011;17906;47.684;10.806;2022-12-17T00:05:40;25.77;;;9.97;;
16737;SDS011;17906;47.684;10.806;2022-12-17T00:08:24;24.67;;;9.67;;
16737;SDS011;17906;47.684;10.806;2022-12-17T00:11:10;26.40;;;9.50;;
16737;SDS011;17906;47.684;10.806;2022-12-17T00:13:54;29.90;;;10.27;;
16737;SDS011;17906;47.684;10.806;2022-12-17T00:16:38;21.53;;;9.57;;
16737;SDS011;17906;47.684;10.806;2022-12-17T00:19:23;28.70;;;10.77;;
16737;SDS011;17906;47.684;10.806;2022-12-17T00:22:07;25.53;;;10.00;;
16737;SDS011;17906;47.684;10.806;2022-12-17T00:24:51;23.73;;;9.67;;
16737;SDS011;17906;47.684;10.806;2022-12-17T00:27:37;24.73;;;9.67;;
16737;SDS011;17906;47.684;10.806;2022-12-17T00:30:21;29.60;;;10.20;;
16737;SDS011;17906;47.684;10.806;2022-12-17T00:33:14;33.23;;;11.07;;
16737;SDS011;17906;47.684;10.806;2022-12-17T00:35:58;26.80;;;10.33;;
16737;SDS011;17906;47.684;10.806;2022-12-17T00:38:43;31.57;;;10.57;;
16737;SDS011;17906;47.684;10.806;2022-12-17T00:41:27;25.67;;;9.93;;
16737;SDS011;17906;47.684;10.806;2022-12-17T00:44:21;30.77;;;11.03;;
16737;SDS011;17906;47.684;10.806;2022-12-17T00:47:06;24.40;;;9.27;;
16737;SDS011;17906;47.684;10.806;2022-12-17T00:49:50;27.47;;;10.97;;
16737;SDS011;17906;47.684;10.806;2022-12-17T00:52:34;25.90;;;10.27;;
16737;SDS011;17906;47.684;10.806;2022-12-17T00:55:18;25.53;;;10.50;;
16737;SDS011;17906;47.684;10.806;2022-12-17T00:58:03;25.63;;;9.43;;
16737;SDS011;17906;47.684;10.806;2022-12-17T01:00:48;28.70;;;10.40;;
16737;SDS011;17906;47.684;10.806;2022-12-17T01:03:33;29.53;;;9.97;;
16737;SDS011;17906;47.684;10.806;2022-12-17T01:06:17;29.53;;;10.93;;
16737;SDS011;17906;47.684;10.806;2022-12-17T01:09:01;23.93;;;9.90;;
16737;SDS011;17906;47.684;10.806;2022-12-17T01:11:46;26.83;;;10.13;;
16737;SDS011;17906;47.684;10.806;2022-12-17T01:14:35;21.27;;;9.37;;
16737;SDS011;17906;47.684;10.806;2022-12-17T01:17:21;31.30;;;10.80;;
16737;SDS011;17906;47.684;10.806;2022-12-17T01:20:05;31.90;;;11.57;;
16737;SDS011;17906;47.684;10.806;2022-12-17T01:22:49;26.93;;;9.17;;
16737;SDS011;17906;47.684;10.806;2022-12-17T01:25:34;27.97;;;10.27;;
16737;SDS011;17906;47.684;10.806;2022-12-17T01:28:20;27.73;;;10.93;;
16737;SDS011;17906;47.684;10.806;2022-12-17T01:31:05;25.70;;;10.33;;
16737;SDS011;17906;47.684;10.806;2022-12-17T01:33:50;25.47;;;10.10;;
16737;SDS011;17906;47.684;10.806;2022-12-17T01:36:35;25.27;;;9.83;;
16737;SDS011;17906;47.684;10.806;2022-12-17T01:39:19;26.10;;;10.17;;
16737;SDS011;17906;47.684;10.806;2022-12-17T01:42:03;28.70;;;10.37;;
16737;SDS011;17906;47.684;10.806;2022-12-17T01:44:49;31.67;;;12.00;;
16737;SDS011;17906;47.684;10.806;2022-12-17T01:47:37;27.97;;;11.23;;
16737;SDS011;17906;47.684;10.806;2022-12-17T01:50:43;29.47;;;10.13;;
16737;SDS011;17906;47.684;10.806;2022-12-17T01:53:29;28.57;;;10.10;;
16737;SDS011;17906;47.684;10.806;2022-12-17T01:56:16;29.70;;;10.77;;
16737;SDS011;17906;47.684;10.806;2022-12-17T01:59:01;30.63;;;10.93;;
16737;SDS011;17906;47.684;10.806;2022-12-17T02:01:46;28.90;;;10.73;;
16737;SDS011;17906;47.684;10.806;2022-12-17T02:04:30;29.60;;;11.83;;
16737;SDS011;17906;47.684;10.806;2022-12-17T02:07:19;29.90;;;11.60;;
16737;SDS011;17906;47.684;10.806;2022-12-17T02:10:17;39.00;;;12.00;;
16737;SDS011;17906;47.684;10.806;2022-12-17T02:13:07;32.33;;;12.00;;
16737;SDS011;17906;47.684;10.806;2022-12-17T02:15:57;34.07;;;12.60;;
16737;SDS011;17906;47.684;10.806;2022-12-17T02:18:49;31.23;;;12.00;;
16737;SDS011;17906;47.684;10.806;2022-12-17T02:21:36;33.87;;;11.50;;
16737;SDS011;17906;47.684;10.806;2022-12-17T02:24:27;32.90;;;11.33;;
16737;SDS011;17906;47.684;10.806;2022-12-17T02:27:20;31.70;;;11.23;;
16737;SDS011;17906;47.684;10.806;2022-12-17T02:30:11;33.60;;;12.50;;
16737;SDS011;17906;47.684;10.806;2022-12-17T02:32:55;35.43;;;12.27;;
16737;SDS011;17906;47.684;10.806;2022-12-17T02:35:41;32.13;;;12.27;;
16737;SDS011;17906;47.684;10.806;2022-12-17T02:38:28;35.03;;;13.43;;
16737;SDS011;17906;47.684;10.806;2022-12-17T02:41:15;34.20;;;12.93;;
16737;SDS011;17906;47.684;10.806;2022-12-17T02:47:31;32.57;;;11.93;;
16737;SDS011;17906;47.684;10.806;2022-12-17T02:50:15;34.57;;;12.80;;
16737;SDS011;17906;47.684;10.806;2022-12-17T02:53:00;31.07;;;12.03;;
16737;SDS011;17906;47.684;10.806;2022-12-17T02:55:46;35.57;;;12.10;;
16737;SDS011;17906;47.684;10.806;2022-12-17T02:58:30;36.07;;;12.90;;
16737;SDS011;17906;47.684;10.806;2022-12-17T03:01:14;36.03;;;13.07;;
16737;SDS011;17906;47.684;10.806;2022-12-17T03:04:01;29.87;;;11.63;;
16737;SDS011;17906;47.684;10.806;2022-12-17T03:06:45;36.57;;;13.00;;
16737;SDS011;17906;47.684;10.806;2022-12-17T03:09:30;35.17;;;12.53;;
16737;SDS011;17906;47.684;10.806;2022-12-17T03:12:28;32.83;;;12.33;;
16737;SDS011;17906;47.684;10.806;2022-12-17T03:15:13;37.90;;;12.60;;
16737;SDS011;17906;47.684;10.806;2022-12-17T03:18:03;37.20;;;13.63;;
16737;SDS011;17906;47.684;10.806;2022-12-17T03:21:00;36.13;;;13.33;;
16737;SDS011;17906;47.684;10.806;2022-12-17T03:23:44;44.43;;;13.93;;
16737;SDS011;17906;47.684;10.806;2022-12-17T03:26:43;42.73;;;14.00;;
16737;SDS011;17906;47.684;10.806;2022-12-17T03:29:27;38.63;;;13.33;;
16737;SDS011;17906;47.684;10.806;2022-12-17T03:32:11;37.10;;;13.17;;
16737;SDS011;17906;47.684;10.806;2022-12-17T03:34:55;36.13;;;14.40;;
16737;SDS011;17906;47.684;10.806;2022-12-17T03:37:41;37.50;;;13.40;;
16737;SDS011;17906;47.684;10.806;2022-12-17T03:40:25;34.77;;;12.47;;
16737;SDS011;17906;47.684;10.806;2022-12-17T03:43:10;37.53;;;13.07;;
16737;SDS011;17906;47.684;10.806;2022-12-17T03:45:55;38.97;;;14.07;;
16737;SDS011;17906;47.684;10.806;2022-12-17T03:48:40;38.67;;;13.13;;
16737;SDS011;17906;47.684;10.806;2022-12-17T03:51:24;30.93;;;12.77;;
16737;SDS011;17906;47.684;10.806;2022-12-17T03:54:10;36.77;;;13.30;;
16737;SDS011;17906;47.684;10.806;2022-12-17T03:56:54;37.30;;;12.90;;
16737;SDS011;17906;47.684;10.806;2022-12-17T03:59:38;32.47;;;13.17;;
16737;SDS011;17906;47.684;10.806;2022-12-17T04:02:22;36.80;;;13.80;;
16737;SDS011;17906;47.684;10.806;2022-12-17T04:05:06;39.43;;;12.90;;
16737;SDS011;17906;47.684;10.806;2022-12-17T04:07:51;38.13;;;13.83;;
16737;SDS011;17906;47.684;10.806;2022-12-17T04:10:37;36.33;;;13.00;;
16737;SDS011;17906;47.684;10.806;2022-12-17T04:13:22;38.20;;;13.77;;
16737;SDS011;17906;47.684;10.806;2022-12-17T04:16:06;40.07;;;13.57;;
16737;SDS011;17906;47.684;10.806;2022-12-17T04:18:50;35.93;;;12.80;;
16737;SDS011;17906;47.684;10.806;2022-12-17T04:21:34;40.40;;;14.33;;
16737;SDS011;17906;47.684;10.806;2022-12-17T04:24:19;38.13;;;13.53;;
16737;SDS011;17906;47.684;10.806;2022-12-17T04:27:04;35.20;;;12.97;;
16737;SDS011;17906;47.684;10.806;2022-12-17T04:29:49;37.57;;;14.17;;
16737;SDS011;17906;47.684;10.806;2022-12-17T04:32:33;38.90;;;13.03;;
16737;SDS011;17906;47.684;10.806;2022-12-17T04:35:17;39.67;;;14.53;;
16737;SDS011;17906;47.684;10.806;2022-12-17T04:38:02;39.37;;;14.03;;
16737;SDS011;17906;47.684;10.806;2022-12-17T04:40:51;37.17;;;13.57;;
16737;SDS011;17906;47.684;10.806;2022-12-17T04:43:37;33.17;;;12.93;;
16737;SDS011;17906;47.684;10.806;2022-12-17T04:46:21;42.10;;;14.47;;
16737;SDS011;17906;47.684;10.806;2022-12-17T04:49:06;44.07;;;13.60;;
16737;SDS011;17906;47.684;10.806;2022-12-17T04:51:50;38.17;;;13.90;;
16737;SDS011;17906;47.684;10.806;2022-12-17T04:54:34;36.77;;;12.97;;
16737;SDS011;17906;47.684;10.806;2022-12-17T04:57:18;34.33;;;12.83;;
16737;SDS011;17906;47.684;10.806;2022-12-17T05:00:04;40.77;;;14.10;;
16737;SDS011;17906;47.684;10.806;2022-12-17T05:02:49;40.53;;;14.00;;
16737;SDS011;17906;47.684;10.806;2022-12-17T05:05:33;35.97;;;13.93;;
16737;SDS011;17906;47.684;10.806;2022-12-17T05:08:18;35.00;;;12.93;;
16737;SDS011;17906;47.684;10.806;2022-12-17T05:11:02;37.33;;;13.67;;
16737;SDS011;17906;47.684;10.806;2022-12-17T05:13:47;40.57;;;14.17;;
16737;SDS011;17906;47.684;10.806;2022-12-17T05:16:32;40.57;;;13.33;;
16737;SDS011;17906;47.684;10.806;2022-12-17T05:19:16;39.60;;;14.43;;
16737;SDS011;17906;47.684;10.806;2022-12-17T05:22:01;39.50;;;15.40;;
16737;SDS011;17906;47.684;10.806;2022-12-17T05:24:45;38.20;;;14.47;;
16737;SDS011;17906;47.684;10.806;2022-12-17T05:27:29;36.43;;;13.60;;
16737;SDS011;17906;47.684;10.806;2022-12-17T05:30:13;43.93;;;14.40;;
16737;SDS011;17906;47.684;10.806;2022-12-17T05:32:59;43.70;;;15.17;;
16737;SDS011;17906;47.684;10.806;2022-12-17T05:35:44;42.67;;;14.63;;
16737;SDS011;17906;47.684;10.806;2022-12-17T05:38:43;37.60;;;13.60;;
16737;SDS011;17906;47.684;10.806;2022-12-17T05:41:27;44.50;;;16.00;;
16737;SDS011;17906;47.684;10.806;2022-12-17T05:44:12;44.23;;;14.40;;
16737;SDS011;17906;47.684;10.806;2022-12-17T05:46:56;54.57;;;15.90;;
16737;SDS011;17906;47.684;10.806;2022-12-17T05:49:41;52.10;;;16.43;;
16737;SDS011;17906;47.684;10.806;2022-12-17T05:52:22;49.93;;;15.53;;
16737;SDS011;17906;47.684;10.806;2022-12-17T05:55:06;47.17;;;14.97;;
16737;SDS011;17906;47.684;10.806;2022-12-17T05:57:51;53.93;;;15.63;;
16737;SDS011;17906;47.684;10.806;2022-12-17T06:00:35;48.67;;;16.07;;
16737;SDS011;17906;47.684;10.806;2022-12-17T06:03:19;47.80;;;15.77;;
16737;SDS011;17906;47.684;10.806;2022-12-17T06:06:05;57.17;;;18.20;;
16737;SDS011;17906;47.684;10.806;2022-12-17T06:08:49;55.03;;;18.20;;
16737;SDS011;17906;47.684;10.806;2022-12-17T06:11:33;61.13;;;17.97;;
16737;SDS011;17906;47.684;10.806;2022-12-17T06:14:17;66.30;;;19.63;;
16737;SDS011;17906;47.684;10.806;2022-12-17T06:17:02;52.27;;;16.87;;
16737;SDS011;17906;47.684;10.806;2022-12-17T06:19:45;58.80;;;19.00;;
16737;SDS011;17906;47.684;10.806;2022-12-17T06:22:32;48.43;;;16.80;;
16737;SDS011;17906;47.684;10.806;2022-12-17T06:25:16;52.60;;;17.77;;
16737;SDS011;17906;47.684;10.806;2022-12-17T06:28:00;52.10;;;16.03;;
16737;SDS011;17906;47.684;10.806;2022-12-17T06:30:48;65.60;;;21.50;;
16737;SDS011;17906;47.684;10.806;2022-12-17T06:33:33;68.70;;;22.73;;
16737;SDS011;17906;47.684;10.806;2022-12-17T06:36:31;89.27;;;28.43;;
16737;SDS011;17906;47.684;10.806;2022-12-17T06:39:16;61.37;;;21.07;;
16737;SDS011;17906;47.684;10.806;2022-12-17T06:42:01;57.27;;;18.23;;
16737;SDS011;17906;47.684;10.806;2022-12-17T06:44:45;65.70;;;21.70;;
16737;SDS011;17906;47.684;10.806;2022-12-17T06:47:29;53.03;;;16.80;;
16737;SDS011;17906;47.684;10.806;2022-12-17T06:50:13;47.30;;;15.17;;
16737;SDS011;17906;47.684;10.806;2022-12-17T06:52:58;46.33;;;16.10;;
16737;SDS011;17906;47.684;10.806;2022-12-17T06:55:44;45.80;;;16.03;;
16737;SDS011;17906;47.684;10.806;2022-12-17T06:58:28;46.10;;;15.93;;
16737;SDS011;17906;47.684;10.806;2022-12-17T07:01:13;43.53;;;15.43;;
16737;SDS011;17906;47.684;10.806;2022-12-17T07:03:57;56.47;;;17.13;;
16737;SDS011;17906;47.684;10.806;2022-12-17T07:06:41;49.20;;;16.87;;
16737;SDS011;17906;47.684;10.806;2022-12-17T07:09:45;47.23;;;15.53;;
16737;SDS011;17906;47.684;10.806;2022-12-17T07:12:29;44.83;;;14.83;;
16737;SDS011;17906;47.684;10.806;2022-12-17T07:15:14;55.03;;;18.57;;
16737;SDS011;17906;47.684;10.806;2022-12-17T07:17:58;46.33;;;15.97;;
16737;SDS011;17906;47.684;10.806;2022-12-17T07:20:43;49.33;;;16.37;;
16737;SDS011;17906;47.684;10.806;2022-12-17T07:23:29;42.63;;;15.37;;
16737;SDS011;17906;47.684;10.806;2022-12-17T07:26:14;50.10;;;16.97;;
16737;SDS011;17906;47.684;10.806;2022-12-17T07:28:58;50.13;;;16.03;;
16737;SDS011;17906;47.684;10.806;2022-12-17T07:31:43;49.50;;;15.27;;
16737;SDS011;17906;47.684;10.806;2022-12-17T07:34:27;45.90;;;15.47;;
16737;SDS011;17906;47.684;10.806;2022-12-17T07:37:11;63.27;;;20.67;;
16737;SDS011;17906;47.684;10.806;2022-12-17T07:39:55;49.33;;;16.10;;
16737;SDS011;17906;47.684;10.806;2022-12-17T07:42:41;50.73;;;15.07;;
16737;SDS011;17906;47.684;10.806;2022-12-17T07:45:25;52.30;;;15.27;;
16737;SDS011;17906;47.684;10.806;2022-12-17T07:48:09;56.47;;;17.93;;
16737;SDS011;17906;47.684;10.806;2022-12-17T07:50:54;48.67;;;20.00;;
16737;SDS011;17906;47.684;10.806;2022-12-17T07:53:38;41.67;;;14.00;;
16737;SDS011;17906;47.684;10.806;2022-12-17T07:56:23;42.47;;;15.03;;
16737;SDS011;17906;47.684;10.806;2022-12-17T07:59:08;47.33;;;14.70;;
16737;SDS011;17906;47.684;10.806;2022-12-17T08:01:55;46.20;;;15.60;;
16737;SDS011;17906;47.684;10.806;2022-12-17T08:04:40;44.03;;;14.93;;
16737;SDS011;17906;47.684;10.806;2022-12-17T08:07:24;44.57;;;15.90;;
16737;SDS011;17906;47.684;10.806;2022-12-17T08:10:09;48.37;;;16.17;;
16737;SDS011;17906;47.684;10.806;2022-12-17T08:13:08;42.37;;;13.93;;
16737;SDS011;17906;47.684;10.806;2022-12-17T08:15:54;39.67;;;13.63;;
16737;SDS011;17906;47.684;10.806;2022-12-17T08:18:38;41.83;;;14.97;;
16737;SDS011;17906;47.684;10.806;2022-12-17T08:21:22;45.10;;;15.77;;
16737;SDS011;17906;47.684;10.806;2022-12-17T08:24:06;48.20;;;16.73;;
16737;SDS011;17906;47.684;10.806;2022-12-17T08:26:50;44.20;;;15.23;;
16737;SDS011;17906;47.684;10.806;2022-12-17T08:29:34;47.67;;;17.20;;
16737;SDS011;17906;47.684;10.806;2022-12-17T08:32:19;47.63;;;15.73;;
16737;SDS011;17906;47.684;10.806;2022-12-17T08:35:04;48.57;;;15.60;;
16737;SDS011;17906;47.684;10.806;2022-12-17T08:37:49;43.57;;;14.07;;
16737;SDS011;17906;47.684;10.806;2022-12-17T08:40:33;45.73;;;14.10;;
16737;SDS011;17906;47.684;10.806;2022-12-17T08:43:17;39.07;;;14.87;;
16737;SDS011;17906;47.684;10.806;2022-12-17T08:46:02;48.27;;;15.07;;
16737;SDS011;17906;47.684;10.806;2022-12-17T08:48:47;42.80;;;15.23;;
16737;SDS011;17906;47.684;10.806;2022-12-17T08:51:32;41.87;;;15.03;;
16737;SDS011;17906;47.684;10.806;2022-12-17T08:54:16;38.50;;;14.73;;
16737;SDS011;17906;47.684;10.806;2022-12-17T08:57:00;43.20;;;15.07;;
16737;SDS011;17906;47.684;10.806;2022-12-17T08:59:44;42.67;;;15.07;;
16737;SDS011;17906;47.684;10.806;2022-12-17T09:02:29;44.10;;;14.93;;
16737;SDS011;17906;47.684;10.806;2022-12-17T09:05:14;51.40;;;14.63;;
16737;SDS011;17906;47.684;10.806;2022-12-17T09:07:59;39.80;;;15.03;;
16737;SDS011;17906;47.684;10.806;2022-12-17T09:10:43;46.97;;;17.90;;
16737;SDS011;17906;47.684;10.806;2022-12-17T09:13:28;52.67;;;16.43;;
16737;SDS011;17906;47.684;10.806;2022-12-17T09:16:12;44.33;;;15.30;;
16737;SDS011;17906;47.684;10.806;2022-12-17T09:18:56;43.37;;;16.03;;
16737;SDS011;17906;47.684;10.806;2022-12-17T09:21:42;44.23;;;15.57;;
16737;SDS011;17906;47.684;10.806;2022-12-17T09:24:26;44.67;;;17.40;;
16737;SDS011;17906;47.684;10.806;2022-12-17T09:27:11;51.27;;;16.30;;
16737;SDS011;17906;47.684;10.806;2022-12-17T09:29:55;49.70;;;17.57;;
16737;SDS011;17906;47.684;10.806;2022-12-17T09:32:39;45.00;;;16.40;;
16737;SDS011;17906;47.684;10.806;2022-12-17T09:35:24;50.40;;;17.27;;
16737;SDS011;17906;47.684;10.806;2022-12-17T09:38:11;46.13;;;17.33;;
16737;SDS011;17906;47.684;10.806;2022-12-17T09:40:57;48.50;;;18.33;;
16737;SDS011;17906;47.684;10.806;2022-12-17T09:43:49;50.50;;;18.13;;
16737;SDS011;17906;47.684;10.806;2022-12-17T09:46:41;47.53;;;17.43;;
16737;SDS011;17906;47.684;10.806;2022-12-17T09:49:32;45.77;;;17.63;;
16737;SDS011;17906;47.684;10.806;2022-12-17T09:52:18;49.97;;;18.07;;
16737;SDS011;17906;47.684;10.806;2022-12-17T09:55:14;44.90;;;17.60;;
16737;SDS011;17906;47.684;10.806;2022-12-17T09:58:02;47.07;;;18.40;;
16737;SDS011;17906;47.684;10.806;2022-12-17T10:00:47;46.67;;;16.93;;
16737;SDS011;17906;47.684;10.806;2022-12-17T10:03:32;48.50;;;17.40;;
16737;SDS011;17906;47.684;10.806;2022-12-17T10:06:19;47.40;;;16.77;;
16737;SDS011;17906;47.684;10.806;2022-12-17T10:09:08;47.60;;;16.63;;
16737;SDS011;17906;47.684;10.806;2022-12-17T10:11:57;45.37;;;16.63;;
16737;SDS011;17906;47.684;10.806;2022-12-17T10:14:45;45.07;;;17.27;;
16737;SDS011;17906;47.684;10.806;2022-12-17T10:17:30;50.10;;;17.23;;
16737;SDS011;17906;47.684;10.806;2022-12-17T10:20:16;49.40;;;17.60;;
16737;SDS011;17906;47.684;10.806;2022-12-17T10:23:04;49.60;;;17.60;;
16737;SDS011;17906;47.684;10.806;2022-12-17T10:25:49;40.33;;;16.17;;
16737;SDS011;17906;47.684;10.806;2022-12-17T10:28:35;49.97;;;18.27;;
16737;SDS011;17906;47.684;10.806;2022-12-17T10:31:20;47.13;;;18.03;;
16737;SDS011;17906;47.684;10.806;2022-12-17T10:34:05;45.23;;;17.10;;
16737;SDS011;17906;47.684;10.806;2022-12-17T10:36:51;48.47;;;16.87;;
16737;SDS011;17906;47.684;10.806;2022-12-17T10:39:36;45.73;;;17.10;;
16737;SDS011;17906;47.684;10.806;2022-12-17T10:42:22;45.23;;;16.37;;
16737;SDS011;17906;47.684;10.806;2022-12-17T10:45:23;43.93;;;16.53;;
16737;SDS011;17906;47.684;10.806;2022-12-17T10:48:18;45.20;;;16.07;;
16737;SDS011;17906;47.684;10.806;2022-12-17T10:51:03;46.13;;;15.90;;
16737;SDS011;17906;47.684;10.806;2022-12-17T10:53:48;42.13;;;15.73;;
16737;SDS011;17906;47.684;10.806;2022-12-17T10:56:34;49.27;;;16.17;;
16737;SDS011;17906;47.684;10.806;2022-12-17T10:59:26;44.57;;;15.67;;
16737;SDS011;17906;47.684;10.806;2022-12-17T11:02:16;39.40;;;14.97;;
16737;SDS011;17906;47.684;10.806;2022-12-17T11:05:07;61.80;;;22.53;;
16737;SDS011;17906;47.684;10.806;2022-12-17T11:07:58;44.97;;;15.17;;
16737;SDS011;17906;47.684;10.806;2022-12-17T11:10:45;42.83;;;14.23;;
16737;SDS011;17906;47.684;10.806;2022-12-17T11:13:30;38.50;;;12.90;;
16737;SDS011;17906;47.684;10.806;2022-12-17T11:16:19;38.93;;;13.23;;
16737;SDS011;17906;47.684;10.806;2022-12-17T11:19:14;35.67;;;14.20;;
16737;SDS011;17906;47.684;10.806;2022-12-17T11:22:14;28.83;;;11.63;;
16737;SDS011;17906;47.684;10.806;2022-12-17T11:25:05;29.87;;;11.33;;
16737;SDS011;17906;47.684;10.806;2022-12-17T11:28:03;32.13;;;12.13;;
16737;SDS011;17906;47.684;10.806;2022-12-17T11:31:01;33.10;;;10.97;;
16737;SDS011;17906;47.684;10.806;2022-12-17T11:34:03;32.00;;;12.13;;
16737;SDS011;17906;47.684;10.806;2022-12-17T11:36:59;30.73;;;11.90;;
16737;SDS011;17906;47.684;10.806;2022-12-17T11:39:55;33.93;;;11.73;;
16737;SDS011;17906;47.684;10.806;2022-12-17T11:42:44;36.47;;;13.10;;
16737;SDS011;17906;47.684;10.806;2022-12-17T11:45:36;34.00;;;12.50;;
16737;SDS011;17906;47.684;10.806;2022-12-17T11:48:29;34.03;;;12.83;;
16737;SDS011;17906;47.684;10.806;2022-12-17T11:51:21;33.70;;;12.73;;
16737;SDS011;17906;47.684;10.806;2022-12-17T11:54:14;34.53;;;11.60;;
16737;SDS011;17906;47.684;10.806;2022-12-17T11:57:07;29.57;;;11.23;;
16737;SDS011;17906;47.684;10.806;2022-12-17T12:00:01;33.27;;;13.43;;
16737;SDS011;17906;47.684;10.806;2022-12-17T12:02:50;35.40;;;14.80;;
16737;SDS011;17906;47.684;10.806;2022-12-17T12:05:42;28.97;;;11.67;;
16737;SDS011;17906;47.684;10.806;2022-12-17T12:08:32;28.30;;;11.03;;
16737;SDS011;17906;47.684;10.806;2022-12-17T12:11:24;33.97;;;12.43;;
16737;SDS011;17906;47.684;10.806;2022-12-17T12:14:16;41.37;;;13.03;;
16737;SDS011;17906;47.684;10.806;2022-12-17T12:17:15;31.33;;;11.40;;
16737;SDS011;17906;47.684;10.806;2022-12-17T12:20:15;26.77;;;11.00;;
16737;SDS011;17906;47.684;10.806;2022-12-17T12:23:13;38.77;;;13.77;;
16737;SDS011;17906;47.684;10.806;2022-12-17T12:26:10;37.13;;;12.83;;
16737;SDS011;17906;47.684;10.806;2022-12-17T12:29:00;30.93;;;12.33;;
16737;SDS011;17906;47.684;10.806;2022-12-17T12:31:56;34.83;;;12.10;;
16737;SDS011;17906;47.684;10.806;2022-12-17T12:34:49;32.10;;;11.90;;
16737;SDS011;17906;47.684;10.806;2022-12-17T12:37:37;30.63;;;11.07;;
16737;SDS011;17906;47.684;10.806;2022-12-17T12:40:37;30.70;;;11.53;;
16737;SDS011;17906;47.684;10.806;2022-12-17T12:43:29;30.80;;;11.17;;
16737;SDS011;17906;47.684;10.806;2022-12-17T12:46:18;28.77;;;10.20;;
16737;SDS011;17906;47.684;10.806;2022-12-17T12:49:09;25.47;;;9.87;;
16737;SDS011;17906;47.684;10.806;2022-12-17T12:52:02;29.20;;;10.37;;
16737;SDS011;17906;47.684;10.806;2022-12-17T12:54:50;29.83;;;10.03;;
16737;SDS011;17906;47.684;10.806;2022-12-17T12:57:36;30.47;;;10.87;;
16737;SDS011;17906;47.684;10.806;2022-12-17T13:00:28;30.73;;;10.63;;
16737;SDS011;17906;47.684;10.806;2022-12-17T13:03:25;29.43;;;9.33;;
16737;SDS011;17906;47.684;10.806;2022-12-17T13:06:12;27.47;;;9.57;;
16737;SDS011;17906;47.684;10.806;2022-12-17T13:08:40;26.63;;;9.77;;
16737;SDS011;17906;47.684;10.806;2022-12-17T13:11:08;30.17;;;9.43;;
16737;SDS011;17906;47.684;10.806;2022-12-17T13:13:39;27.20;;;9.53;;
16737;SDS011;17906;47.684;10.806;2022-12-17T13:16:23;30.33;;;10.87;;
16737;SDS011;17906;47.684;10.806;2022-12-17T13:19:02;35.97;;;12.97;;
16737;SDS011;17906;47.684;10.806;2022-12-17T13:21:29;32.37;;;11.40;;
16737;SDS011;17906;47.684;10.806;2022-12-17T13:23:56;30.40;;;10.50;;
16737;SDS011;17906;47.684;10.806;2022-12-17T13:26:29;28.30;;;10.60;;
16737;SDS011;17906;47.684;10.806;2022-12-17T13:29:10;27.53;;;10.23;;
16737;SDS011;17906;47.684;10.806;2022-12-17T13:31:47;32.33;;;11.37;;
16737;SDS011;17906;47.684;10.806;2022-12-17T13:34:26;30.27;;;10.67;;
16737;SDS011;17906;47.684;10.806;2022-12-17T13:37:04;28.33;;;11.40;;
16737;SDS011;17906;47.684;10.806;2022-12-17T13:39:40;37.83;;;14.30;;
16737;SDS011;17906;47.684;10.806;2022-12-17T13:42:15;30.13;;;11.53;;
16737;SDS011;17906;47.684;10.806;2022-12-17T13:44:44;29.10;;;11.07;;
16737;SDS011;17906;47.684;10.806;2022-12-17T13:47:17;30.57;;;10.63;;
16737;SDS011;17906;47.684;10.806;2022-12-17T13:49:50;32.33;;;12.23;;
16737;SDS011;17906;47.684;10.806;2022-12-17T13:52:19;34.20;;;12.17;;
16737;SDS011;17906;47.684;10.806;2022-12-17T13:54:48;33.67;;;12.67;;
16737;SDS011;17906;47.684;10.806;2022-12-17T13:57:16;30.20;;;11.23;;
16737;SDS011;17906;47.684;10.806;2022-12-17T13:59:47;26.83;;;10.10;;
16737;SDS011;17906;47.684;10.806;2022-12-17T14:02:22;26.30;;;10.20;;
16737;SDS011;17906;47.684;10.806;2022-12-17T14:04:52;31.27;;;10.60;;
16737;SDS011;17906;47.684;10.806;2022-12-17T14:07:20;21.87;;;8.93;;
16737;SDS011;17906;47.684;10.806;2022-12-17T14:09:47;30.37;;;9.90;;
16737;SDS011;17906;47.684;10.806;2022-12-17T14:12:15;27.00;;;10.17;;
16737;SDS011;17906;47.684;10.806;2022-12-17T14:14:50;34.00;;;12.63;;
16737;SDS011;17906;47.684;10.806;2022-12-17T14:17:22;31.73;;;11.17;;
16737;SDS011;17906;47.684;10.806;2022-12-17T14:19:53;33.20;;;10.80;;
16737;SDS011;17906;47.684;10.806;2022-12-17T14:22:26;30.93;;;11.80;;
16737;SDS011;17906;47.684;10.806;2022-12-17T14:24:58;38.13;;;14.57;;
16737;SDS011;17906;47.684;10.806;2022-12-17T14:27:30;47.23;;;14.70;;
16737;SDS011;17906;47.684;10.806;2022-12-17T14:29:58;49.13;;;17.57;;
16737;SDS011;17906;47.684;10.806;2022-12-17T14:32:29;35.97;;;13.50;;
16737;SDS011;17906;47.684;10.806;2022-12-17T14:35:00;44.73;;;16.80;;
16737;SDS011;17906;47.684;10.806;2022-12-17T14:37:27;47.27;;;16.37;;
16737;SDS011;17906;47.684;10.806;2022-12-17T14:39:56;37.27;;;13.47;;
16737;SDS011;17906;47.684;10.806;2022-12-17T14:42:27;45.17;;;17.13;;
16737;SDS011;17906;47.684;10.806;2022-12-17T14:44:54;48.23;;;16.93;;
16737;SDS011;17906;47.684;10.806;2022-12-17T14:47:23;63.67;;;20.60;;
16737;SDS011;17906;47.684;10.806;2022-12-17T14:49:53;78.30;;;24.93;;
16737;SDS011;17906;47.684;10.806;2022-12-17T14:52:26;97.47;;;30.90;;
16737;SDS011;17906;47.684;10.806;2022-12-17T14:55:00;31.97;;;11.73;;
16737;SDS011;17906;47.684;10.806;2022-12-17T14:57:27;35.00;;;12.27;;
16737;SDS011;17906;47.684;10.806;2022-12-17T14:59:53;25.00;;;10.10;;
16737;SDS011;17906;47.684;10.806;2022-12-17T15:02:21;40.07;;;15.23;;
16737;SDS011;17906;47.684;10.806;2022-12-17T15:04:50;35.23;;;12.63;;
16737;SDS011;17906;47.684;10.806;2022-12-17T15:07:20;29.73;;;11.90;;
16737;SDS011;17906;47.684;10.806;2022-12-17T15:09:51;38.00;;;14.47;;
16737;SDS011;17906;47.684;10.806;2022-12-17T15:12:19;39.97;;;12.93;;
16737;SDS011;17906;47.684;10.806;2022-12-17T15:14:47;36.83;;;13.97;;
16737;SDS011;17906;47.684;10.806;2022-12-17T15:17:14;42.70;;;15.40;;
16737;SDS011;17906;47.684;10.806;2022-12-17T15:19:41;31.87;;;12.30;;
16737;SDS011;17906;47.684;10.806;2022-12-17T15:22:11;49.07;;;17.40;;
16737;SDS011;17906;47.684;10.806;2022-12-17T15:24:40;31.80;;;11.77;;
16737;SDS011;17906;47.684;10.806;2022-12-17T15:27:09;29.43;;;10.20;;
16737;SDS011;17906;47.684;10.806;2022-12-17T15:29:37;25.27;;;8.83;;
16737;SDS011;17906;47.684;10.806;2022-12-17T15:32:04;21.70;;;8.27;;
16737;SDS011;17906;47.684;10.806;2022-12-17T15:34:31;23.03;;;8.33;;
16737;SDS011;17906;47.684;10.806;2022-12-17T15:36:58;22.37;;;8.70;;
16737;SDS011;17906;47.684;10.806;2022-12-17T15:39:24;25.37;;;8.33;;
16737;SDS011;17906;47.684;10.806;2022-12-17T15:41:51;23.77;;;8.73;;
16737;SDS011;17906;47.684;10.806;2022-12-17T15:44:42;22.83;;;8.50;;
16737;SDS011;17906;47.684;10.806;2022-12-17T15:47:09;27.57;;;9.50;;
16737;SDS011;17906;47.684;10.806;2022-12-17T15:49:35;18.13;;;6.90;;